sensor_id;sensor_type;location;lat;lon;timestamp;P1;durP1;ratioP1;P2;durP2;ratioP2
42724;SDS011;28369;44.046;23.014;2023-04-21T00:00:02;23.95;;;9.80;;
42724;SDS011;28369;44.046;23.014;2023-04-21T00:02:31;11.23;;;6.80;;
42724;SDS011;28369;44.046;23.014;2023-04-21T00:04:57;10.30;;;7.20;;
42724;SDS011;28369;44.046;23.014;2023-04-21T00:07:24;9.13;;;7.05;;
42724;SDS011;28369;44.046;23.014;2023-04-21T00:09:49;11.18;;;7.28;;
42724;SDS011;28369;44.046;23.014;2023-04-21T00:12:15;14.07;;;8.18;;
42724;SDS011;28369;44.046;23.014;2023-04-21T00:14:40;13.27;;;8.48;;
42724;SDS011;28369;44.046;23.014;2023-04-21T00:17:06;10.02;;;7.30;;
42724;SDS011;28369;44.046;23.014;2023-04-21T00:19:31;13.73;;;6.90;;
42724;SDS011;28369;44.046;23.014;2023-04-21T00:21:59;12.88;;;7.90;;
42724;SDS011;28369;44.046;23.014;2023-04-21T00:24:25;21.58;;;9.43;;
42724;SDS011;28369;44.046;23.014;2023-04-21T00:26:51;14.95;;;9.18;;
42724;SDS011;28369;44.046;23.014;2023-04-21T00:29:16;20.33;;;9.95;;
42724;SDS011;28369;44.046;23.014;2023-04-21T00:31:42;18.65;;;9.23;;
42724;SDS011;28369;44.046;23.014;2023-04-21T00:34:07;12.55;;;7.88;;
42724;SDS011;28369;44.046;23.014;2023-04-21T00:36:33;12.18;;;7.75;;
42724;SDS011;28369;44.046;23.014;2023-04-21T00:38:58;11.98;;;8.35;;
42724;SDS011;28369;44.046;23.014;2023-04-21T00:41:24;10.73;;;8.27;;
42724;SDS011;28369;44.046;23.014;2023-04-21T00:43:58;14.68;;;8.82;;
42724;SDS011;28369;44.046;23.014;2023-04-21T00:46:28;17.98;;;8.80;;
42724;SDS011;28369;44.046;23.014;2023-04-21T00:48:54;15.93;;;8.68;;
42724;SDS011;28369;44.046;23.014;2023-04-21T00:51:19;11.55;;;7.18;;
42724;SDS011;28369;44.046;23.014;2023-04-21T00:53:45;11.45;;;8.55;;
42724;SDS011;28369;44.046;23.014;2023-04-21T00:56:11;15.75;;;9.13;;
42724;SDS011;28369;44.046;23.014;2023-04-21T00:58:37;12.75;;;9.02;;
42724;SDS011;28369;44.046;23.014;2023-04-21T01:01:06;14.85;;;8.05;;
42724;SDS011;28369;44.046;23.014;2023-04-21T01:03:32;13.10;;;8.50;;
42724;SDS011;28369;44.046;23.014;2023-04-21T01:05:58;16.02;;;9.57;;
42724;SDS011;28369;44.046;23.014;2023-04-21T01:08:23;15.13;;;10.30;;
42724;SDS011;28369;44.046;23.014;2023-04-21T01:10:50;15.27;;;11.43;;
42724;SDS011;28369;44.046;23.014;2023-04-21T01:13:18;12.57;;;9.63;;
42724;SDS011;28369;44.046;23.014;2023-04-21T01:15:44;16.83;;;9.65;;
42724;SDS011;28369;44.046;23.014;2023-04-21T01:18:10;12.93;;;8.90;;
42724;SDS011;28369;44.046;23.014;2023-04-21T01:20:36;14.10;;;9.80;;
42724;SDS011;28369;44.046;23.014;2023-04-21T01:23:03;15.10;;;11.60;;
42724;SDS011;28369;44.046;23.014;2023-04-21T01:25:28;21.98;;;12.35;;
42724;SDS011;28369;44.046;23.014;2023-04-21T01:27:54;16.25;;;10.13;;
42724;SDS011;28369;44.046;23.014;2023-04-21T01:30:19;13.55;;;9.20;;
42724;SDS011;28369;44.046;23.014;2023-04-21T01:32:45;12.70;;;8.95;;
42724;SDS011;28369;44.046;23.014;2023-04-21T01:35:11;14.77;;;10.05;;
42724;SDS011;28369;44.046;23.014;2023-04-21T01:37:36;13.30;;;9.18;;
42724;SDS011;28369;44.046;23.014;2023-04-21T01:40:04;13.27;;;7.60;;
42724;SDS011;28369;44.046;23.014;2023-04-21T01:42:31;9.70;;;7.75;;
42724;SDS011;28369;44.046;23.014;2023-04-21T01:44:58;12.05;;;7.45;;
42724;SDS011;28369;44.046;23.014;2023-04-21T01:47:24;9.45;;;7.65;;
42724;SDS011;28369;44.046;23.014;2023-04-21T01:49:50;11.35;;;7.68;;
42724;SDS011;28369;44.046;23.014;2023-04-21T01:52:16;11.25;;;7.13;;
42724;SDS011;28369;44.046;23.014;2023-04-21T01:54:41;24.92;;;8.15;;
42724;SDS011;28369;44.046;23.014;2023-04-21T01:57:07;12.63;;;7.63;;
42724;SDS011;28369;44.046;23.014;2023-04-21T01:59:32;14.45;;;7.68;;
42724;SDS011;28369;44.046;23.014;2023-04-21T02:01:58;10.35;;;7.40;;
42724;SDS011;28369;44.046;23.014;2023-04-21T02:04:24;10.20;;;7.13;;
42724;SDS011;28369;44.046;23.014;2023-04-21T02:06:49;9.63;;;7.07;;
42724;SDS011;28369;44.046;23.014;2023-04-21T02:09:14;11.90;;;8.70;;
42724;SDS011;28369;44.046;23.014;2023-04-21T02:11:40;12.75;;;10.25;;
42724;SDS011;28369;44.046;23.014;2023-04-21T02:14:06;12.73;;;9.27;;
42724;SDS011;28369;44.046;23.014;2023-04-21T02:16:32;13.35;;;8.15;;
42724;SDS011;28369;44.046;23.014;2023-04-21T02:18:57;10.88;;;6.88;;
42724;SDS011;28369;44.046;23.014;2023-04-21T02:21:24;9.30;;;6.80;;
42724;SDS011;28369;44.046;23.014;2023-04-21T02:23:50;9.40;;;6.78;;
42724;SDS011;28369;44.046;23.014;2023-04-21T02:26:17;12.60;;;6.82;;
42724;SDS011;28369;44.046;23.014;2023-04-21T02:28:43;9.48;;;6.50;;
42724;SDS011;28369;44.046;23.014;2023-04-21T02:31:09;10.68;;;7.15;;
42724;SDS011;28369;44.046;23.014;2023-04-21T02:33:34;7.20;;;6.50;;
42724;SDS011;28369;44.046;23.014;2023-04-21T02:36:00;12.85;;;6.68;;
42724;SDS011;28369;44.046;23.014;2023-04-21T02:38:25;10.40;;;7.30;;
42724;SDS011;28369;44.046;23.014;2023-04-21T02:40:51;8.15;;;6.32;;
42724;SDS011;28369;44.046;23.014;2023-04-21T02:43:16;11.52;;;6.13;;
42724;SDS011;28369;44.046;23.014;2023-04-21T02:45:42;8.35;;;6.57;;
42724;SDS011;28369;44.046;23.014;2023-04-21T02:48:07;8.35;;;5.97;;
42724;SDS011;28369;44.046;23.014;2023-04-21T02:50:33;8.73;;;6.82;;
42724;SDS011;28369;44.046;23.014;2023-04-21T02:52:59;7.38;;;6.68;;
42724;SDS011;28369;44.046;23.014;2023-04-21T02:55:25;8.68;;;6.03;;
42724;SDS011;28369;44.046;23.014;2023-04-21T02:57:50;8.77;;;6.95;;
42724;SDS011;28369;44.046;23.014;2023-04-21T03:00:16;7.97;;;6.35;;
42724;SDS011;28369;44.046;23.014;2023-04-21T03:02:42;9.82;;;6.70;;
42724;SDS011;28369;44.046;23.014;2023-04-21T03:05:08;10.90;;;6.85;;
42724;SDS011;28369;44.046;23.014;2023-04-21T03:07:34;12.95;;;8.35;;
42724;SDS011;28369;44.046;23.014;2023-04-21T03:09:59;11.40;;;8.20;;
42724;SDS011;28369;44.046;23.014;2023-04-21T03:12:25;13.90;;;7.70;;
42724;SDS011;28369;44.046;23.014;2023-04-21T03:14:50;13.15;;;7.80;;
42724;SDS011;28369;44.046;23.014;2023-04-21T03:17:16;9.88;;;8.23;;
42724;SDS011;28369;44.046;23.014;2023-04-21T03:19:41;11.05;;;9.50;;
42724;SDS011;28369;44.046;23.014;2023-04-21T03:22:07;14.93;;;12.80;;
42724;SDS011;28369;44.046;23.014;2023-04-21T03:24:32;18.60;;;13.63;;
42724;SDS011;28369;44.046;23.014;2023-04-21T03:26:58;13.63;;;9.80;;
42724;SDS011;28369;44.046;23.014;2023-04-21T03:29:24;13.00;;;11.13;;
42724;SDS011;28369;44.046;23.014;2023-04-21T03:31:49;15.73;;;11.32;;
42724;SDS011;28369;44.046;23.014;2023-04-21T03:34:15;15.27;;;11.07;;
42724;SDS011;28369;44.046;23.014;2023-04-21T03:36:40;16.60;;;13.57;;
42724;SDS011;28369;44.046;23.014;2023-04-21T03:39:06;13.82;;;12.15;;
42724;SDS011;28369;44.046;23.014;2023-04-21T03:41:32;13.13;;;9.70;;
42724;SDS011;28369;44.046;23.014;2023-04-21T03:43:58;18.60;;;10.88;;
42724;SDS011;28369;44.046;23.014;2023-04-21T03:46:24;12.13;;;9.23;;
42724;SDS011;28369;44.046;23.014;2023-04-21T03:48:49;12.23;;;9.73;;
42724;SDS011;28369;44.046;23.014;2023-04-21T03:51:15;19.17;;;9.35;;
42724;SDS011;28369;44.046;23.014;2023-04-21T03:53:40;9.60;;;8.18;;
42724;SDS011;28369;44.046;23.014;2023-04-21T03:56:06;17.60;;;8.90;;
42724;SDS011;28369;44.046;23.014;2023-04-21T03:58:32;11.52;;;8.82;;
42724;SDS011;28369;44.046;23.014;2023-04-21T04:00:58;14.98;;;8.82;;
42724;SDS011;28369;44.046;23.014;2023-04-21T04:03:24;20.05;;;9.13;;
42724;SDS011;28369;44.046;23.014;2023-04-21T04:05:49;13.07;;;9.85;;
42724;SDS011;28369;44.046;23.014;2023-04-21T04:08:15;15.68;;;9.10;;
42724;SDS011;28369;44.046;23.014;2023-04-21T04:10:40;13.65;;;9.82;;
42724;SDS011;28369;44.046;23.014;2023-04-21T04:13:06;15.90;;;9.70;;
42724;SDS011;28369;44.046;23.014;2023-04-21T04:15:31;14.35;;;9.60;;
42724;SDS011;28369;44.046;23.014;2023-04-21T04:17:57;17.15;;;10.20;;
42724;SDS011;28369;44.046;23.014;2023-04-21T04:20:22;15.05;;;10.48;;
42724;SDS011;28369;44.046;23.014;2023-04-21T04:22:48;13.88;;;10.02;;
42724;SDS011;28369;44.046;23.014;2023-04-21T04:25:14;13.93;;;10.57;;
42724;SDS011;28369;44.046;23.014;2023-04-21T04:27:41;23.17;;;10.60;;
42724;SDS011;28369;44.046;23.014;2023-04-21T04:30:08;17.40;;;10.50;;
42724;SDS011;28369;44.046;23.014;2023-04-21T04:32:34;20.70;;;12.60;;
42724;SDS011;28369;44.046;23.014;2023-04-21T04:35:03;16.02;;;11.57;;
42724;SDS011;28369;44.046;23.014;2023-04-21T04:37:29;21.40;;;11.57;;
42724;SDS011;28369;44.046;23.014;2023-04-21T04:39:55;16.13;;;9.80;;
42724;SDS011;28369;44.046;23.014;2023-04-21T04:42:21;12.75;;;9.23;;
42724;SDS011;28369;44.046;23.014;2023-04-21T04:44:51;18.63;;;10.05;;
42724;SDS011;28369;44.046;23.014;2023-04-21T04:47:17;10.15;;;7.75;;
42724;SDS011;28369;44.046;23.014;2023-04-21T04:49:43;10.25;;;7.47;;
42724;SDS011;28369;44.046;23.014;2023-04-21T04:52:08;8.23;;;6.30;;
42724;SDS011;28369;44.046;23.014;2023-04-21T04:54:34;10.15;;;6.97;;
42724;SDS011;28369;44.046;23.014;2023-04-21T04:57:00;10.98;;;6.63;;
42724;SDS011;28369;44.046;23.014;2023-04-21T04:59:26;7.50;;;6.28;;
42724;SDS011;28369;44.046;23.014;2023-04-21T05:01:52;7.40;;;6.43;;
42724;SDS011;28369;44.046;23.014;2023-04-21T05:04:17;8.32;;;5.75;;
42724;SDS011;28369;44.046;23.014;2023-04-21T05:06:43;8.48;;;5.55;;
42724;SDS011;28369;44.046;23.014;2023-04-21T05:09:08;9.00;;;5.53;;
42724;SDS011;28369;44.046;23.014;2023-04-21T05:11:34;16.00;;;6.05;;
42724;SDS011;28369;44.046;23.014;2023-04-21T05:13:59;6.65;;;5.50;;
42724;SDS011;28369;44.046;23.014;2023-04-21T05:16:25;7.43;;;5.47;;
42724;SDS011;28369;44.046;23.014;2023-04-21T05:18:50;4.97;;;4.50;;
42724;SDS011;28369;44.046;23.014;2023-04-21T05:21:21;6.00;;;4.82;;
42724;SDS011;28369;44.046;23.014;2023-04-21T05:23:56;6.80;;;4.82;;
42724;SDS011;28369;44.046;23.014;2023-04-21T05:26:26;8.55;;;5.18;;
42724;SDS011;28369;44.046;23.014;2023-04-21T05:28:56;5.53;;;4.55;;
42724;SDS011;28369;44.046;23.014;2023-04-21T05:31:23;10.68;;;7.55;;
42724;SDS011;28369;44.046;23.014;2023-04-21T05:33:49;8.55;;;6.15;;
42724;SDS011;28369;44.046;23.014;2023-04-21T05:36:15;25.77;;;16.80;;
42724;SDS011;28369;44.046;23.014;2023-04-21T05:38:40;27.75;;;18.17;;
42724;SDS011;28369;44.046;23.014;2023-04-21T05:41:06;16.15;;;11.73;;
42724;SDS011;28369;44.046;23.014;2023-04-21T05:43:32;7.93;;;6.20;;
42724;SDS011;28369;44.046;23.014;2023-04-21T05:45:58;8.70;;;5.65;;
42724;SDS011;28369;44.046;23.014;2023-04-21T05:48:24;6.05;;;5.18;;
42724;SDS011;28369;44.046;23.014;2023-04-21T05:50:49;6.88;;;5.68;;
42724;SDS011;28369;44.046;23.014;2023-04-21T05:53:15;6.53;;;5.05;;
42724;SDS011;28369;44.046;23.014;2023-04-21T05:55:41;8.02;;;5.32;;
42724;SDS011;28369;44.046;23.014;2023-04-21T05:58:06;7.22;;;5.43;;
42724;SDS011;28369;44.046;23.014;2023-04-21T06:00:32;6.75;;;5.47;;
42724;SDS011;28369;44.046;23.014;2023-04-21T06:02:58;5.53;;;4.97;;
42724;SDS011;28369;44.046;23.014;2023-04-21T06:05:23;8.45;;;5.63;;
42724;SDS011;28369;44.046;23.014;2023-04-21T06:07:49;9.73;;;5.43;;
42724;SDS011;28369;44.046;23.014;2023-04-21T06:13:00;5.70;;;5.07;;
42724;SDS011;28369;44.046;23.014;2023-04-21T06:15:26;7.20;;;5.68;;
42724;SDS011;28369;44.046;23.014;2023-04-21T06:17:52;6.60;;;5.20;;
42724;SDS011;28369;44.046;23.014;2023-04-21T06:23:46;7.75;;;5.85;;
42724;SDS011;28369;44.046;23.014;2023-04-21T06:28:37;8.75;;;6.13;;
42724;SDS011;28369;44.046;23.014;2023-04-21T06:31:03;9.63;;;5.68;;
42724;SDS011;28369;44.046;23.014;2023-04-21T06:33:29;7.82;;;5.35;;
42724;SDS011;28369;44.046;23.014;2023-04-21T06:35:54;9.32;;;5.90;;
42724;SDS011;28369;44.046;23.014;2023-04-21T06:38:20;9.43;;;5.90;;
42724;SDS011;28369;44.046;23.014;2023-04-21T06:40:45;8.57;;;6.15;;
42724;SDS011;28369;44.046;23.014;2023-04-21T06:43:11;7.35;;;5.70;;
42724;SDS011;28369;44.046;23.014;2023-04-21T06:45:36;8.23;;;5.65;;
42724;SDS011;28369;44.046;23.014;2023-04-21T06:48:02;6.75;;;5.38;;
42724;SDS011;28369;44.046;23.014;2023-04-21T06:50:28;10.18;;;5.70;;
42724;SDS011;28369;44.046;23.014;2023-04-21T06:52:53;10.30;;;5.78;;
42724;SDS011;28369;44.046;23.014;2023-04-21T06:55:19;11.90;;;5.63;;
42724;SDS011;28369;44.046;23.014;2023-04-21T06:57:44;8.02;;;5.63;;
42724;SDS011;28369;44.046;23.014;2023-04-21T07:03:32;6.78;;;5.50;;
42724;SDS011;28369;44.046;23.014;2023-04-21T07:09:19;10.38;;;5.05;;
42724;SDS011;28369;44.046;23.014;2023-04-21T07:15:06;5.93;;;4.57;;
42724;SDS011;28369;44.046;23.014;2023-04-21T07:20:54;7.18;;;5.22;;
42724;SDS011;28369;44.046;23.014;2023-04-21T07:23:19;11.55;;;4.82;;
42724;SDS011;28369;44.046;23.014;2023-04-21T07:25:45;9.27;;;4.93;;
42724;SDS011;28369;44.046;23.014;2023-04-21T07:28:10;8.73;;;4.90;;
42724;SDS011;28369;44.046;23.014;2023-04-21T07:30:39;7.40;;;4.60;;
42724;SDS011;28369;44.046;23.014;2023-04-21T07:33:04;8.55;;;4.93;;
42724;SDS011;28369;44.046;23.014;2023-04-21T07:38:55;11.70;;;5.50;;
42724;SDS011;28369;44.046;23.014;2023-04-21T07:44:42;4.88;;;4.38;;
42724;SDS011;28369;44.046;23.014;2023-04-21T07:50:29;6.63;;;4.43;;
42724;SDS011;28369;44.046;23.014;2023-04-21T07:58:44;7.82;;;4.55;;
42724;SDS011;28369;44.046;23.014;2023-04-21T08:01:10;7.35;;;5.45;;
42724;SDS011;28369;44.046;23.014;2023-04-21T08:03:36;9.27;;;4.82;;
42724;SDS011;28369;44.046;23.014;2023-04-21T08:06:01;9.45;;;4.40;;
42724;SDS011;28369;44.046;23.014;2023-04-21T08:08:27;6.10;;;4.13;;
42724;SDS011;28369;44.046;23.014;2023-04-21T08:10:52;8.25;;;4.70;;
42724;SDS011;28369;44.046;23.014;2023-04-21T08:13:18;7.18;;;4.57;;
42724;SDS011;28369;44.046;23.014;2023-04-21T08:15:45;8.55;;;4.95;;
42724;SDS011;28369;44.046;23.014;2023-04-21T08:18:11;8.65;;;5.47;;
42724;SDS011;28369;44.046;23.014;2023-04-21T08:20:36;6.72;;;5.10;;
42724;SDS011;28369;44.046;23.014;2023-04-21T08:23:02;10.82;;;5.40;;
42724;SDS011;28369;44.046;23.014;2023-04-21T08:25:27;7.13;;;4.80;;
42724;SDS011;28369;44.046;23.014;2023-04-21T08:27:53;9.73;;;4.90;;
42724;SDS011;28369;44.046;23.014;2023-04-21T08:30:18;8.52;;;5.32;;
42724;SDS011;28369;44.046;23.014;2023-04-21T08:32:44;8.43;;;4.65;;
42724;SDS011;28369;44.046;23.014;2023-04-21T08:35:10;8.55;;;4.68;;
42724;SDS011;28369;44.046;23.014;2023-04-21T08:37:36;11.25;;;4.78;;
42724;SDS011;28369;44.046;23.014;2023-04-21T08:40:03;7.80;;;4.32;;
42724;SDS011;28369;44.046;23.014;2023-04-21T08:42:30;9.88;;;4.30;;
42724;SDS011;28369;44.046;23.014;2023-04-21T08:44:55;10.32;;;3.47;;
42724;SDS011;28369;44.046;23.014;2023-04-21T08:47:21;7.38;;;3.42;;
42724;SDS011;28369;44.046;23.014;2023-04-21T08:49:49;8.07;;;4.20;;
42724;SDS011;28369;44.046;23.014;2023-04-21T08:52:15;6.47;;;3.90;;
42724;SDS011;28369;44.046;23.014;2023-04-21T08:54:42;5.28;;;4.05;;
42724;SDS011;28369;44.046;23.014;2023-04-21T08:57:07;5.30;;;4.00;;
42724;SDS011;28369;44.046;23.014;2023-04-21T08:59:33;7.97;;;4.13;;
42724;SDS011;28369;44.046;23.014;2023-04-21T09:04:30;13.93;;;3.80;;
42724;SDS011;28369;44.046;23.014;2023-04-21T09:06:55;8.93;;;3.72;;
42724;SDS011;28369;44.046;23.014;2023-04-21T09:09:21;12.55;;;4.10;;
42724;SDS011;28369;44.046;23.014;2023-04-21T09:11:56;7.05;;;4.13;;
42724;SDS011;28369;44.046;23.014;2023-04-21T09:14:31;6.40;;;3.88;;
42724;SDS011;28369;44.046;23.014;2023-04-21T09:16:58;6.32;;;3.85;;
42724;SDS011;28369;44.046;23.014;2023-04-21T09:19:32;6.43;;;4.30;;
42724;SDS011;28369;44.046;23.014;2023-04-21T09:22:01;11.48;;;4.43;;
42724;SDS011;28369;44.046;23.014;2023-04-21T09:24:27;8.77;;;4.45;;
42724;SDS011;28369;44.046;23.014;2023-04-21T09:26:53;8.90;;;3.80;;
42724;SDS011;28369;44.046;23.014;2023-04-21T09:29:22;6.35;;;4.43;;
42724;SDS011;28369;44.046;23.014;2023-04-21T09:31:48;5.22;;;4.07;;
42724;SDS011;28369;44.046;23.014;2023-04-21T09:34:18;9.63;;;4.28;;
42724;SDS011;28369;44.046;23.014;2023-04-21T09:36:47;8.32;;;3.78;;
42724;SDS011;28369;44.046;23.014;2023-04-21T09:39:12;10.80;;;4.00;;
42724;SDS011;28369;44.046;23.014;2023-04-21T09:41:38;10.82;;;4.22;;
42724;SDS011;28369;44.046;23.014;2023-04-21T09:44:04;9.88;;;4.85;;
42724;SDS011;28369;44.046;23.014;2023-04-21T09:46:31;8.45;;;3.67;;
42724;SDS011;28369;44.046;23.014;2023-04-21T09:49:01;6.80;;;3.47;;
42724;SDS011;28369;44.046;23.014;2023-04-21T09:51:28;5.95;;;3.55;;
42724;SDS011;28369;44.046;23.014;2023-04-21T09:53:59;9.10;;;4.03;;
42724;SDS011;28369;44.046;23.014;2023-04-21T09:56:28;6.50;;;3.15;;
42724;SDS011;28369;44.046;23.014;2023-04-21T09:58:57;5.75;;;2.85;;
42724;SDS011;28369;44.046;23.014;2023-04-21T10:01:26;6.60;;;3.20;;
42724;SDS011;28369;44.046;23.014;2023-04-21T10:03:54;9.27;;;3.42;;
42724;SDS011;28369;44.046;23.014;2023-04-21T10:06:20;12.48;;;5.47;;
42724;SDS011;28369;44.046;23.014;2023-04-21T10:08:47;6.20;;;3.40;;
42724;SDS011;28369;44.046;23.014;2023-04-21T10:11:15;11.45;;;3.25;;
42724;SDS011;28369;44.046;23.014;2023-04-21T10:13:40;8.40;;;3.67;;
42724;SDS011;28369;44.046;23.014;2023-04-21T10:16:07;10.85;;;3.63;;
42724;SDS011;28369;44.046;23.014;2023-04-21T10:18:34;6.57;;;3.20;;
42724;SDS011;28369;44.046;23.014;2023-04-21T10:23:36;9.20;;;4.32;;
42724;SDS011;28369;44.046;23.014;2023-04-21T10:26:03;5.10;;;3.13;;
42724;SDS011;28369;44.046;23.014;2023-04-21T10:42:35;10.02;;;3.53;;
42724;SDS011;28369;44.046;23.014;2023-04-21T10:50:18;7.75;;;3.42;;
42724;SDS011;28369;44.046;23.014;2023-04-21T10:52:53;8.05;;;3.50;;
42724;SDS011;28369;44.046;23.014;2023-04-21T10:55:19;5.63;;;3.60;;
42724;SDS011;28369;44.046;23.014;2023-04-21T10:57:46;7.53;;;3.33;;
42724;SDS011;28369;44.046;23.014;2023-04-21T11:00:19;9.48;;;3.88;;
42724;SDS011;28369;44.046;23.014;2023-04-21T11:02:54;10.48;;;3.20;;
42724;SDS011;28369;44.046;23.014;2023-04-21T11:05:19;4.22;;;2.78;;
42724;SDS011;28369;44.046;23.014;2023-04-21T11:08:00;14.68;;;3.63;;
42724;SDS011;28369;44.046;23.014;2023-04-21T11:10:46;7.93;;;3.03;;
42724;SDS011;28369;44.046;23.014;2023-04-21T11:13:14;13.77;;;3.92;;
42724;SDS011;28369;44.046;23.014;2023-04-21T11:15:40;7.63;;;4.00;;
42724;SDS011;28369;44.046;23.014;2023-04-21T11:18:05;4.78;;;3.15;;
42724;SDS011;28369;44.046;23.014;2023-04-21T11:20:32;5.28;;;3.00;;
42724;SDS011;28369;44.046;23.014;2023-04-21T11:22:58;12.85;;;3.75;;
42724;SDS011;28369;44.046;23.014;2023-04-21T11:25:24;7.10;;;3.28;;
42724;SDS011;28369;44.046;23.014;2023-04-21T11:27:53;7.40;;;3.42;;
42724;SDS011;28369;44.046;23.014;2023-04-21T11:30:20;6.97;;;2.80;;
42724;SDS011;28369;44.046;23.014;2023-04-21T11:32:52;4.50;;;3.25;;
42724;SDS011;28369;44.046;23.014;2023-04-21T11:35:18;11.13;;;3.55;;
42724;SDS011;28369;44.046;23.014;2023-04-21T11:37:43;5.45;;;2.95;;
42724;SDS011;28369;44.046;23.014;2023-04-21T11:40:09;6.45;;;3.17;;
42724;SDS011;28369;44.046;23.014;2023-04-21T11:42:35;7.25;;;3.10;;
42724;SDS011;28369;44.046;23.014;2023-04-21T11:45:01;7.35;;;2.97;;
42724;SDS011;28369;44.046;23.014;2023-04-21T11:47:27;9.32;;;2.85;;
42724;SDS011;28369;44.046;23.014;2023-04-21T11:49:55;7.95;;;3.20;;
42724;SDS011;28369;44.046;23.014;2023-04-21T11:52:23;11.47;;;3.17;;
42724;SDS011;28369;44.046;23.014;2023-04-21T11:54:54;6.15;;;2.97;;
42724;SDS011;28369;44.046;23.014;2023-04-21T11:57:22;10.15;;;3.17;;
42724;SDS011;28369;44.046;23.014;2023-04-21T11:59:49;6.75;;;3.30;;
42724;SDS011;28369;44.046;23.014;2023-04-21T12:02:27;9.95;;;3.47;;
42724;SDS011;28369;44.046;23.014;2023-04-21T12:07:25;6.40;;;2.92;;
42724;SDS011;28369;44.046;23.014;2023-04-21T12:09:53;5.90;;;3.20;;
42724;SDS011;28369;44.046;23.014;2023-04-21T12:12:18;9.20;;;3.17;;
42724;SDS011;28369;44.046;23.014;2023-04-21T12:14:48;6.18;;;2.97;;
42724;SDS011;28369;44.046;23.014;2023-04-21T12:17:15;7.43;;;3.33;;
42724;SDS011;28369;44.046;23.014;2023-04-21T12:19:40;5.03;;;2.90;;
42724;SDS011;28369;44.046;23.014;2023-04-21T12:22:10;9.77;;;3.20;;
42724;SDS011;28369;44.046;23.014;2023-04-21T12:24:37;7.97;;;2.90;;
42724;SDS011;28369;44.046;23.014;2023-04-21T12:27:03;5.28;;;2.83;;
42724;SDS011;28369;44.046;23.014;2023-04-21T12:29:30;10.45;;;3.17;;
42724;SDS011;28369;44.046;23.014;2023-04-21T12:31:56;5.47;;;2.50;;
42724;SDS011;28369;44.046;23.014;2023-04-21T12:34:22;11.90;;;3.30;;
42724;SDS011;28369;44.046;23.014;2023-04-21T12:36:47;5.20;;;2.53;;
42724;SDS011;28369;44.046;23.014;2023-04-21T12:39:13;5.90;;;3.10;;
42724;SDS011;28369;44.046;23.014;2023-04-21T12:41:41;3.88;;;2.60;;
42724;SDS011;28369;44.046;23.014;2023-04-21T12:44:06;3.83;;;2.95;;
42724;SDS011;28369;44.046;23.014;2023-04-21T12:46:32;7.03;;;2.58;;
42724;SDS011;28369;44.046;23.014;2023-04-21T12:48:58;6.05;;;2.70;;
42724;SDS011;28369;44.046;23.014;2023-04-21T12:51:24;2.63;;;2.42;;
42724;SDS011;28369;44.046;23.014;2023-04-21T12:53:50;3.97;;;2.58;;
42724;SDS011;28369;44.046;23.014;2023-04-21T12:56:15;4.07;;;2.70;;
42724;SDS011;28369;44.046;23.014;2023-04-21T12:58:42;7.88;;;2.70;;
42724;SDS011;28369;44.046;23.014;2023-04-21T13:01:07;4.53;;;2.72;;
42724;SDS011;28369;44.046;23.014;2023-04-21T13:03:33;5.75;;;2.50;;
42724;SDS011;28369;44.046;23.014;2023-04-21T13:05:58;7.93;;;3.03;;
42724;SDS011;28369;44.046;23.014;2023-04-21T13:08:24;5.00;;;3.03;;
42724;SDS011;28369;44.046;23.014;2023-04-21T13:10:50;6.60;;;2.95;;
42724;SDS011;28369;44.046;23.014;2023-04-21T13:13:15;5.55;;;2.90;;
42724;SDS011;28369;44.046;23.014;2023-04-21T13:15:41;4.40;;;2.97;;
42724;SDS011;28369;44.046;23.014;2023-04-21T13:18:06;6.45;;;2.83;;
42724;SDS011;28369;44.046;23.014;2023-04-21T13:20:32;7.43;;;2.67;;
42724;SDS011;28369;44.046;23.014;2023-04-21T13:22:57;8.95;;;3.13;;
42724;SDS011;28369;44.046;23.014;2023-04-21T13:25:23;6.97;;;2.60;;
42724;SDS011;28369;44.046;23.014;2023-04-21T13:27:48;7.07;;;2.85;;
42724;SDS011;28369;44.046;23.014;2023-04-21T13:30:14;8.15;;;2.92;;
42724;SDS011;28369;44.046;23.014;2023-04-21T13:32:40;4.55;;;2.75;;
42724;SDS011;28369;44.046;23.014;2023-04-21T13:35:06;13.27;;;3.67;;
42724;SDS011;28369;44.046;23.014;2023-04-21T13:37:36;6.90;;;2.97;;
42724;SDS011;28369;44.046;23.014;2023-04-21T13:40:02;8.40;;;3.15;;
42724;SDS011;28369;44.046;23.014;2023-04-21T13:42:30;6.60;;;2.97;;
42724;SDS011;28369;44.046;23.014;2023-04-21T13:44:56;6.65;;;3.00;;
42724;SDS011;28369;44.046;23.014;2023-04-21T13:47:22;4.30;;;2.90;;
42724;SDS011;28369;44.046;23.014;2023-04-21T13:49:48;6.35;;;2.90;;
42724;SDS011;28369;44.046;23.014;2023-04-21T13:52:15;3.95;;;2.75;;
42724;SDS011;28369;44.046;23.014;2023-04-21T13:54:41;6.07;;;2.70;;
42724;SDS011;28369;44.046;23.014;2023-04-21T13:57:06;5.97;;;2.90;;
42724;SDS011;28369;44.046;23.014;2023-04-21T13:59:32;5.72;;;2.53;;
42724;SDS011;28369;44.046;23.014;2023-04-21T14:01:58;5.45;;;2.42;;
42724;SDS011;28369;44.046;23.014;2023-04-21T14:04:24;3.47;;;2.55;;
42724;SDS011;28369;44.046;23.014;2023-04-21T14:06:49;8.65;;;2.75;;
42724;SDS011;28369;44.046;23.014;2023-04-21T14:09:15;5.78;;;2.88;;
42724;SDS011;28369;44.046;23.014;2023-04-21T14:11:40;7.30;;;3.40;;
42724;SDS011;28369;44.046;23.014;2023-04-21T14:14:06;5.65;;;2.50;;
42724;SDS011;28369;44.046;23.014;2023-04-21T14:16:32;9.70;;;2.88;;
42724;SDS011;28369;44.046;23.014;2023-04-21T14:18:57;5.47;;;2.60;;
42724;SDS011;28369;44.046;23.014;2023-04-21T14:21:23;8.52;;;3.00;;
42724;SDS011;28369;44.046;23.014;2023-04-21T14:23:48;7.10;;;2.67;;
42724;SDS011;28369;44.046;23.014;2023-04-21T14:26:14;8.75;;;5.90;;
42724;SDS011;28369;44.046;23.014;2023-04-21T14:28:40;8.38;;;2.75;;
42724;SDS011;28369;44.046;23.014;2023-04-21T14:31:05;5.10;;;2.70;;
42724;SDS011;28369;44.046;23.014;2023-04-21T14:33:31;5.55;;;2.78;;
42724;SDS011;28369;44.046;23.014;2023-04-21T14:35:57;10.13;;;3.28;;
42724;SDS011;28369;44.046;23.014;2023-04-21T14:38:23;6.15;;;2.60;;
42724;SDS011;28369;44.046;23.014;2023-04-21T14:40:49;4.63;;;2.40;;
42724;SDS011;28369;44.046;23.014;2023-04-21T14:43:18;4.80;;;2.53;;
42724;SDS011;28369;44.046;23.014;2023-04-21T14:45:44;4.70;;;3.58;;
42724;SDS011;28369;44.046;23.014;2023-04-21T14:48:10;5.35;;;2.78;;
42724;SDS011;28369;44.046;23.014;2023-04-21T14:50:38;5.38;;;3.08;;
42724;SDS011;28369;44.046;23.014;2023-04-21T14:53:06;4.88;;;2.28;;
42724;SDS011;28369;44.046;23.014;2023-04-21T14:55:32;4.53;;;2.60;;
42724;SDS011;28369;44.046;23.014;2023-04-21T14:57:58;4.95;;;2.75;;
42724;SDS011;28369;44.046;23.014;2023-04-21T15:00:23;8.98;;;4.40;;
42724;SDS011;28369;44.046;23.014;2023-04-21T15:02:50;16.10;;;11.60;;
42724;SDS011;28369;44.046;23.014;2023-04-21T15:05:16;7.35;;;4.03;;
42724;SDS011;28369;44.046;23.014;2023-04-21T15:07:42;12.43;;;3.60;;
42724;SDS011;28369;44.046;23.014;2023-04-21T15:10:08;7.22;;;4.22;;
42724;SDS011;28369;44.046;23.014;2023-04-21T15:12:35;8.63;;;2.88;;
42724;SDS011;28369;44.046;23.014;2023-04-21T15:15:01;8.27;;;2.65;;
42724;SDS011;28369;44.046;23.014;2023-04-21T15:17:26;6.50;;;3.28;;
42724;SDS011;28369;44.046;23.014;2023-04-21T15:19:52;8.60;;;4.15;;
42724;SDS011;28369;44.046;23.014;2023-04-21T15:22:17;5.55;;;3.75;;
42724;SDS011;28369;44.046;23.014;2023-04-21T15:24:43;5.60;;;3.15;;
42724;SDS011;28369;44.046;23.014;2023-04-21T15:27:09;7.40;;;2.83;;